Time;durP1;ratioP1;P1;durP2;ratioP2;P2;SDS_P1;SDS_P2;PMS_P1;PMS_P2;Temp;Humidity;BMP_temperature;BMP_pressure;BME280_temperature;BME280_humidity;BME280_pressure;Samples;Min_cycle;Max_cycle;Signal;HPM_P1;HPM_P2
2021/12/22 00:02:21;;;;;;;;;2.33;2.33;;;;;-146.25;100.00;57879.81;5078056;28;46045;-74
2021/12/22 00:04:49;;;;;;;;;19.00;15.00;;;;;-146.25;100.00;57879.81;5066286;28;45279;-74
2021/12/22 00:07:15;;;;;;;;;8.33;7.00;;;;;-146.25;100.00;57879.81;5069391;28;45377;-74
2021/12/22 00:09:42;;;;;;;;;4.33;3.33;;;;;-146.25;100.00;57879.81;5067854;28;45523;-75
2021/12/22 00:12:09;;;;;;;;;2.33;2.00;;;;;-146.25;100.00;57879.81;5067546;28;46243;-74
2021/12/22 00:14:36;;;;;;;;;2.33;2.00;;;;;-146.25;100.00;57879.81;5069203;27;45330;-75
2021/12/22 00:17:01;;;;;;;;;3.00;2.33;;;;;-146.25;100.00;57879.81;5067608;28;45345;-75
2021/12/22 00:19:27;;;;;;;;;4.00;2.67;;;;;-146.25;100.00;57879.81;5078084;28;45448;-73
2021/12/22 00:21:53;;;;;;;;;3.00;2.67;;;;;-146.25;100.00;57879.81;5077733;28;45723;-73
2021/12/22 00:24:18;;;;;;;;;2.67;2.00;;;;;-146.25;100.00;57879.81;5077794;28;45543;-74
2021/12/22 00:26:44;;;;;;;;;2.00;2.00;;;;;-146.25;100.00;57879.81;5067631;28;45520;-73
2021/12/22 00:29:10;;;;;;;;;2.00;2.00;;;;;-146.25;100.00;57879.81;5066559;28;45412;-75
2021/12/22 00:31:43;;;;;;;;;2.00;2.00;;;;;-146.25;100.00;57879.81;5076825;28;47687;-74
2021/12/22 00:34:16;;;;;;;;;2.33;2.00;;;;;-146.25;100.00;57879.81;5077802;28;45378;-74
2021/12/22 00:36:43;;;;;;;;;3.00;2.67;;;;;-146.25;100.00;57879.81;5075711;28;45363;-74
2021/12/22 00:39:09;;;;;;;;;3.33;2.67;;;;;-146.25;100.00;57879.81;5067202;27;45401;-74
2021/12/22 00:41:34;;;;;;;;;3.00;3.00;;;;;-146.25;100.00;57879.81;5068354;28;45474;-74
2021/12/22 00:44:00;;;;;;;;;3.00;3.00;;;;;-146.25;100.00;57879.81;5067068;28;45363;-74
2021/12/22 00:46:25;;;;;;;;;3.67;3.00;;;;;-146.25;100.00;57879.81;5067263;27;45381;-74
2021/12/22 00:48:51;;;;;;;;;3.00;3.00;;;;;-146.25;100.00;57879.81;5067485;28;45586;-74
2021/12/22 00:51:17;;;;;;;;;2.00;2.00;;;;;-146.25;100.00;57879.81;5066321;28;45548;-74
2021/12/22 00:53:42;;;;;;;;;3.00;3.00;;;;;-146.25;100.00;57879.81;5082894;27;45537;-74
2021/12/22 00:56:08;;;;;;;;;4.00;4.00;;;;;-146.25;100.00;57879.81;5068409;28;45503;-74
2021/12/22 00:58:34;;;;;;;;;3.33;3.00;;;;;-146.25;100.00;57879.81;5065191;28;45531;-73
2021/12/22 01:01:00;;;;;;;;;3.00;3.00;;;;;-146.25;100.00;57879.81;5073221;27;45587;-74
2021/12/22 01:03:26;;;;;;;;;5.00;2.00;;;;;-146.25;100.00;57879.81;5068584;28;45530;-75
2021/12/22 01:05:52;;;;;;;;;3.00;2.67;;;;;-146.25;100.00;57879.81;5077988;28;45452;-74
2021/12/22 01:08:19;;;;;;;;;3.00;2.67;;;;;-146.25;100.00;57879.81;5068123;27;45317;-74
2021/12/22 01:10:44;;;;;;;;;2.00;2.00;;;;;-146.25;100.00;57879.81;5066343;28;46299;-74
2021/12/22 01:13:11;;;;;;;;;3.67;3.33;;;;;-146.25;100.00;57879.81;5077210;28;45452;-74
2021/12/22 01:15:37;;;;;;;;;4.00;3.00;;;;;-146.25;100.00;57879.81;5074743;28;45454;-74
2021/12/22 01:18:13;;;;;;;;;3.67;3.33;;;;;-146.25;100.00;57879.81;5077071;28;45320;-73
2021/12/22 01:21:00;;;;;;;;;3.00;3.00;;;;;-146.25;100.00;57879.81;5077078;27;46294;-74
2021/12/22 01:23:26;;;;;;;;;4.33;3.00;;;;;-146.25;100.00;57879.81;5076707;28;45482;-73
2021/12/22 01:25:52;;;;;;;;;3.33;2.67;;;;;-146.25;100.00;57879.81;5076808;28;45471;-73
2021/12/22 01:28:22;;;;;;;;;3.00;2.33;;;;;-146.25;100.00;57879.81;5077072;28;45504;-73
2021/12/22 01:30:49;;;;;;;;;2.75;2.75;;;;;-146.25;100.00;57879.81;5081506;27;45428;-73
2021/12/22 01:33:16;;;;;;;;;4.50;4.50;;;;;-146.25;100.00;57879.81;5077992;28;45597;-74
2021/12/22 01:35:43;;;;;;;;;2.75;2.00;;;;;-146.25;100.00;57879.81;5078701;27;45710;-74
2021/12/22 01:38:09;;;;;;;;;2.67;2.00;;;;;-146.25;100.00;57879.81;5079071;27;45409;-74
2021/12/22 01:40:38;;;;;;;;;2.00;2.00;;;;;-146.25;100.00;57879.81;5078367;27;46794;-74
2021/12/22 01:43:05;;;;;;;;;3.00;3.00;;;;;-146.25;100.00;57879.81;5078240;27;45423;-74
2021/12/22 01:46:32;;;;;;;;;2.67;2.67;;;;;-146.25;100.00;57879.81;5078421;27;45480;-74
2021/12/22 01:51:54;;;;;;;;;3.00;1.00;;;;;-146.25;100.00;57879.81;5078249;28;45457;-74
2021/12/22 01:54:19;;;;;;;;;3.67;3.00;;;;;-146.25;100.00;57879.81;5070590;28;45464;-75
2021/12/22 01:56:46;;;;;;;;;3.00;3.00;;;;;-146.25;100.00;57879.81;5078375;28;45485;-74
2021/12/22 01:59:12;;;;;;;;;3.00;2.67;;;;;-146.25;100.00;57879.81;5077464;28;45381;-75
2021/12/22 02:01:39;;;;;;;;;2.00;2.00;;;;;-146.25;100.00;57879.81;5078371;27;45943;-74
2021/12/22 02:04:10;;;;;;;;;4.67;3.00;;;;;-146.25;100.00;57879.81;5078017;27;45478;-74
2021/12/22 02:06:38;;;;;;;;;3.00;3.00;;;;;-146.25;100.00;57879.81;5078007;27;45349;-74
2021/12/22 02:09:04;;;;;;;;;2.00;2.00;;;;;-146.25;100.00;57879.81;5078323;27;45354;-74
2021/12/22 02:11:30;;;;;;;;;3.00;3.00;;;;;-146.25;100.00;57879.81;5077767;27;46439;-74
2021/12/22 02:14:02;;;;;;;;;3.00;1.33;;;;;-146.25;100.00;57879.81;5077941;27;45218;-74
2021/12/22 02:16:33;;;;;;;;;3.50;3.00;;;;;-146.25;100.00;57879.81;5078116;27;45517;-74
2021/12/22 02:19:01;;;;;;;;;2.00;2.00;;;;;-146.25;100.00;57879.81;5078099;27;45329;-74
2021/12/22 02:21:32;;;;;;;;;4.00;3.00;;;;;-146.25;100.00;57879.81;5076534;27;46215;-74
2021/12/22 02:23:59;;;;;;;;;2.67;2.00;;;;;-146.25;100.00;57879.81;5077624;27;45474;-74
2021/12/22 02:26:38;;;;;;;;;5.67;3.67;;;;;-146.25;100.00;57879.81;5077795;27;45494;-74
2021/12/22 02:29:07;;;;;;;;;5.67;5.00;;;;;-146.25;100.00;57879.81;5078008;28;45523;-75
2021/12/22 02:31:40;;;;;;;;;6.00;5.00;;;;;-146.25;100.00;57879.81;5077512;27;45329;-74
2021/12/22 02:34:13;;;;;;;;;5.00;4.00;;;;;-146.25;100.00;57879.81;5075839;27;45499;-73
2021/12/22 02:36:40;;;;;;;;;4.00;4.00;;;;;-146.25;100.00;57879.81;5091705;27;45856;-74
2021/12/22 02:39:07;;;;;;;;;5.00;4.00;;;;;-146.25;100.00;57879.81;5076006;27;45526;-74
2021/12/22 02:41:36;;;;;;;;;4.00;3.00;;;;;-146.25;100.00;57879.81;5075679;28;46305;-74
2021/12/22 02:44:02;;;;;;;;;3.67;3.00;;;;;-146.25;100.00;57879.81;5075761;27;45313;-74
2021/12/22 02:46:35;;;;;;;;;4.00;4.00;;;;;-146.25;100.00;57879.81;5073904;28;45852;-74
2021/12/22 02:49:04;;;;;;;;;2.00;2.00;;;;;-146.25;100.00;57879.81;5077465;27;45435;-74
2021/12/22 02:51:30;;;;;;;;;2.00;2.00;;;;;-146.25;100.00;57879.81;5077155;27;46129;-75
2021/12/22 02:59:15;;;;;;;;;3.00;2.00;;;;;-146.25;100.00;57879.81;5077413;27;45464;-73
2021/12/22 03:04:18;;;;;;;;;3.00;3.00;;;;;-146.25;100.00;57879.81;5077495;28;45438;-73
2021/12/22 03:06:52;;;;;;;;;3.33;2.00;;;;;-146.25;100.00;57879.81;5077339;27;45346;-74
2021/12/22 03:09:23;;;;;;;;;2.25;2.25;;;;;-146.25;100.00;57879.81;5077249;27;45342;-74
2021/12/22 03:11:50;;;;;;;;;3.33;2.67;;;;;-146.25;100.00;57879.81;5076959;28;46018;-73
2021/12/22 03:14:17;;;;;;;;;3.00;3.00;;;;;-146.25;100.00;57879.81;5077046;28;45575;-73
2021/12/22 03:16:43;;;;;;;;;3.00;2.00;;;;;-146.25;100.00;57879.81;5077361;27;45825;-73
2021/12/22 03:19:12;;;;;;;;;2.00;2.00;;;;;-146.25;100.00;57879.81;5077071;27;45272;-74
2021/12/22 03:21:40;;;;;;;;;1.00;1.00;;;;;-146.25;100.00;57879.81;5076636;27;45352;-74
2021/12/22 03:24:07;;;;;;;;;2.33;2.00;;;;;-146.25;100.00;57879.81;5076853;28;45484;-74
2021/12/22 03:26:32;;;;;;;;;3.00;1.67;;;;;-146.25;100.00;57879.81;5077103;27;45484;-74
2021/12/22 03:28:58;;;;;;;;;2.00;2.00;;;;;-146.25;100.00;57879.81;5077144;27;45281;-74
2021/12/22 03:31:23;;;;;;;;;1.33;1.33;;;;;-146.25;100.00;57879.81;5075193;28;46275;-74
2021/12/22 03:33:50;;;;;;;;;3.33;2.33;;;;;-146.25;100.00;57879.81;5078684;27;45409;-74
2021/12/22 03:36:16;;;;;;;;;1.00;1.00;;;;;-146.25;100.00;57879.81;5080701;27;45424;-74
2021/12/22 03:38:43;;;;;;;;;2.67;2.67;;;;;-146.25;100.00;57879.81;5080809;28;45389;-74
2021/12/22 03:41:09;;;;;;;;;2.00;2.00;;;;;-146.25;100.00;57879.81;5080060;27;45527;-75
2021/12/22 03:43:35;;;;;;;;;3.00;3.00;;;;;-146.25;100.00;57879.81;5080062;28;45417;-74
2021/12/22 03:46:02;;;;;;;;;3.00;3.00;;;;;-146.25;100.00;57879.81;5080271;27;45397;-74
2021/12/22 03:48:28;;;;;;;;;2.00;2.00;;;;;-146.25;100.00;57879.81;5080256;27;45312;-74
2021/12/22 03:50:55;;;;;;;;;2.33;2.33;;;;;-146.25;100.00;57879.81;5079976;28;46229;-74
2021/12/22 03:53:21;;;;;;;;;2.67;2.67;;;;;-146.25;100.00;57879.81;5080065;27;45320;-74
2021/12/22 03:55:46;;;;;;;;;2.00;2.00;;;;;-146.25;100.00;57879.81;5080441;27;45466;-74
2021/12/22 03:58:13;;;;;;;;;4.00;3.00;;;;;-146.25;100.00;57879.81;5080295;28;45368;-74
2021/12/22 04:00:41;;;;;;;;;3.33;3.33;;;;;-146.25;100.00;57879.81;5079930;27;46221;-74
2021/12/22 04:03:15;;;;;;;;;4.33;3.00;;;;;-146.25;100.00;57879.81;5079963;27;45197;-73
2021/12/22 04:05:41;;;;;;;;;3.50;3.00;;;;;-146.25;100.00;57879.81;5080092;27;45304;-74
2021/12/22 04:08:06;;;;;;;;;3.33;2.33;;;;;-146.25;100.00;57879.81;5080079;28;45586;-74
2021/12/22 04:10:32;;;;;;;;;1.00;1.00;;;;;-146.25;100.00;57879.81;5079525;28;45474;-74
2021/12/22 04:12:58;;;;;;;;;3.00;3.00;;;;;-146.25;100.00;57879.81;5079711;27;45431;-74
2021/12/22 04:15:26;;;;;;;;;2.00;2.00;;;;;-146.25;100.00;57879.81;5079991;27;45365;-74
2021/12/22 04:17:52;;;;;;;;;2.00;2.00;;;;;-146.25;100.00;57879.81;5080212;27;45380;-74
2021/12/22 04:20:18;;;;;;;;;3.00;2.00;;;;;-146.25;100.00;57879.81;5079888;27;46040;-74
2021/12/22 04:22:44;;;;;;;;;3.00;3.00;;;;;-146.25;100.00;57879.81;5079332;27;45276;-75
2021/12/22 04:25:10;;;;;;;;;2.00;2.00;;;;;-146.25;100.00;57879.81;5079611;27;45361;-75
2021/12/22 04:27:37;;;;;;;;;2.00;2.00;;;;;-146.25;100.00;57879.81;5079735;27;45421;-75
2021/12/22 04:30:05;;;;;;;;;2.00;1.00;;;;;-146.25;100.00;57879.81;5079055;27;46236;-75
2021/12/22 04:32:30;;;;;;;;;2.00;2.00;;;;;-146.25;100.00;57879.81;5079224;27;45560;-75
2021/12/22 04:34:56;;;;;;;;;3.00;2.67;;;;;-146.25;100.00;57879.81;5079578;27;45485;-75
2021/12/22 04:37:23;;;;;;;;;3.00;2.00;;;;;-146.25;100.00;57879.81;5079803;28;45519;-75
2021/12/22 04:39:48;;;;;;;;;2.67;2.00;;;;;-146.25;100.00;57879.81;5079805;27;45341;-75
2021/12/22 04:42:16;;;;;;;;;3.67;3.00;;;;;-146.25;100.00;57879.81;5079282;28;45211;-75
2021/12/22 04:44:42;;;;;;;;;2.00;2.00;;;;;-146.25;100.00;57879.81;5077048;28;45306;-75
2021/12/22 04:47:07;;;;;;;;;0.00;0.00;;;;;-146.25;100.00;57879.81;5079613;27;45484;-75
2021/12/22 04:49:33;;;;;;;;;2.00;1.00;;;;;-146.25;100.00;57879.81;5079208;27;46164;-75
2021/12/22 04:52:01;;;;;;;;;4.33;3.00;;;;;-146.25;100.00;57879.81;5079388;28;45398;-75
2021/12/22 04:56:52;;;;;;;;;2.00;1.67;;;;;-146.25;100.00;57879.81;5079547;28;46260;-75
2021/12/22 04:59:18;;;;;;;;;2.00;1.67;;;;;-146.25;100.00;57879.81;5079409;27;45964;-75
2021/12/22 05:01:43;;;;;;;;;2.00;2.00;;;;;-146.25;100.00;57879.81;5079242;27;45441;-75
2021/12/22 05:04:09;;;;;;;;;2.33;2.33;;;;;-146.25;100.00;57879.81;5078116;27;45503;-75
2021/12/22 05:06:35;;;;;;;;;3.00;3.00;;;;;-146.25;100.00;57879.81;5066515;28;45517;-74
2021/12/22 05:09:02;;;;;;;;;4.33;3.00;;;;;-146.25;100.00;57879.81;5067870;28;46237;-75
2021/12/22 05:11:28;;;;;;;;;2.00;2.00;;;;;-146.25;100.00;57879.81;5066758;28;45521;-75
2021/12/22 05:13:53;;;;;;;;;3.00;3.00;;;;;-146.25;100.00;57879.81;5076960;27;45613;-75
2021/12/22 05:16:19;;;;;;;;;3.00;2.00;;;;;-146.25;100.00;57879.81;5077431;28;45553;-75
2021/12/22 05:18:53;;;;;;;;;2.00;1.67;;;;;-146.25;100.00;57879.81;5076942;28;46234;-75
2021/12/22 05:21:21;;;;;;;;;3.00;2.00;;;;;-146.25;100.00;57879.81;5066036;27;45485;-75
2021/12/22 05:23:49;;;;;;;;;3.00;2.00;;;;;-146.25;100.00;57879.81;5075586;28;45784;-73
2021/12/22 05:26:15;;;;;;;;;3.00;2.67;;;;;-146.25;100.00;57879.81;5071652;28;45274;-75
2021/12/22 05:28:41;;;;;;;;;2.67;2.67;;;;;-146.25;100.00;57879.81;5076560;27;46183;-75
2021/12/22 05:31:06;;;;;;;;;3.33;3.33;;;;;-146.25;100.00;57879.81;5076857;28;45413;-75
2021/12/22 05:33:32;;;;;;;;;2.33;2.00;;;;;-146.25;100.00;57879.81;5072033;28;45554;-74
2021/12/22 05:35:57;;;;;;;;;3.00;2.00;;;;;-146.25;100.00;57879.81;5077088;28;45382;-73
2021/12/22 05:38:23;;;;;;;;;2.00;2.00;;;;;-146.25;100.00;57879.81;5076494;28;46010;-74
2021/12/22 05:40:48;;;;;;;;;1.00;1.00;;;;;-146.25;100.00;57879.81;5065741;28;45321;-74
2021/12/22 05:43:14;;;;;;;;;3.67;3.00;;;;;-146.25;100.00;57879.81;5067464;28;45351;-74
2021/12/22 05:45:39;;;;;;;;;2.00;2.00;;;;;-146.25;100.00;57879.81;5066742;28;45313;-74
2021/12/22 05:48:05;;;;;;;;;3.50;2.50;;;;;-146.25;100.00;57879.81;5076344;28;45512;-74
2021/12/22 05:50:31;;;;;;;;;1.00;1.00;;;;;-146.25;100.00;57879.81;5076489;28;45439;-75
2021/12/22 05:52:57;;;;;;;;;3.00;3.00;;;;;-146.25;100.00;57879.81;5076612;28;45534;-73
2021/12/22 05:55:22;;;;;;;;;4.00;2.00;;;;;-146.25;100.00;57879.81;5066003;28;45530;-74
2021/12/22 05:57:49;;;;;;;;;3.00;3.00;;;;;-146.25;100.00;57879.81;5073119;28;45469;-74
2021/12/22 06:00:15;;;;;;;;;2.33;2.33;;;;;-146.25;100.00;57879.81;5067430;28;45250;-74
2021/12/22 06:02:42;;;;;;;;;2.00;2.00;;;;;-146.25;100.00;57879.81;5082005;27;45344;-74
2021/12/22 06:05:08;;;;;;;;;2.00;2.00;;;;;-146.25;100.00;57879.81;5076640;27;45447;-74
2021/12/22 06:07:33;;;;;;;;;3.00;2.67;;;;;-146.25;100.00;57879.81;5073392;28;46634;-74
2021/12/22 06:09:59;;;;;;;;;2.00;1.67;;;;;-146.25;100.00;57879.81;5076227;28;45666;-74
2021/12/22 06:12:24;;;;;;;;;2.00;2.00;;;;;-146.25;100.00;57879.81;5092201;27;45621;-73
2021/12/22 06:14:50;;;;;;;;;2.00;2.00;;;;;-146.25;100.00;57879.81;5077005;28;45456;-73
2021/12/22 06:17:16;;;;;;;;;2.67;1.00;;;;;-146.25;100.00;57879.81;5076122;28;45887;-74
2021/12/22 06:19:41;;;;;;;;;2.00;2.00;;;;;-146.25;100.00;57879.81;5066024;28;45615;-74
2021/12/22 06:22:07;;;;;;;;;2.00;2.00;;;;;-146.25;100.00;57879.81;5067010;28;45526;-74
2021/12/22 06:24:32;;;;;;;;;2.00;2.00;;;;;-146.25;100.00;57879.81;5074809;28;45570;-72
2021/12/22 06:26:58;;;;;;;;;1.67;1.33;;;;;-146.25;100.00;57879.81;5066270;28;45413;-74
2021/12/22 06:29:25;;;;;;;;;1.00;1.00;;;;;-146.25;100.00;57879.81;5066676;28;45402;-74
2021/12/22 06:31:51;;;;;;;;;2.33;2.00;;;;;-146.25;100.00;57879.81;5076392;27;45469;-74
2021/12/22 06:34:16;;;;;;;;;2.67;2.00;;;;;-146.25;100.00;57879.81;5066620;27;45306;-74
2021/12/22 06:36:42;;;;;;;;;0.33;0.33;;;;;-146.25;100.00;57879.81;5065897;28;46217;-73
2021/12/22 06:39:08;;;;;;;;;1.00;1.00;;;;;-146.25;100.00;57879.81;5075732;28;45429;-74
2021/12/22 06:41:34;;;;;;;;;2.00;2.00;;;;;-146.25;100.00;57879.81;5073137;28;45515;-74
2021/12/22 06:44:00;;;;;;;;;2.33;2.33;;;;;-146.25;100.00;57879.81;5073111;28;45445;-72
2021/12/22 06:46:25;;;;;;;;;2.00;2.00;;;;;-146.25;100.00;57879.81;5075546;28;45468;-75
2021/12/22 06:48:51;;;;;;;;;1.67;1.67;;;;;-146.25;100.00;57879.81;5075844;28;45422;-74
2021/12/22 06:51:17;;;;;;;;;2.00;2.00;;;;;-146.25;100.00;57879.81;5075703;28;45516;-72
2021/12/22 06:53:42;;;;;;;;;2.00;2.00;;;;;-146.25;100.00;57879.81;5065453;27;45454;-74
2021/12/22 06:56:08;;;;;;;;;2.00;1.33;;;;;-146.25;100.00;57879.81;5081897;27;47979;-74
2021/12/22 06:58:34;;;;;;;;;3.67;2.00;;;;;-146.25;100.00;57879.81;5076833;28;45410;-74
2021/12/22 07:01:00;;;;;;;;;3.00;3.00;;;;;-146.25;100.00;57879.81;5077375;28;45378;-75
2021/12/22 07:03:26;;;;;;;;;2.00;2.00;;;;;-146.25;100.00;57879.81;5077488;28;45460;-76
2021/12/22 07:05:52;;;;;;;;;5.00;4.00;;;;;-146.25;100.00;57879.81;5077188;28;45376;-75
2021/12/22 07:08:18;;;;;;;;;2.00;2.00;;;;;-146.25;100.00;57879.81;5079449;28;45513;-77
2021/12/22 07:10:43;;;;;;;;;3.00;3.00;;;;;-146.25;100.00;57879.81;5081838;28;45447;-75
2021/12/22 07:13:11;;;;;;;;;2.67;2.67;;;;;-146.25;100.00;57879.81;5080999;28;45376;-75
2021/12/22 07:15:36;;;;;;;;;2.67;2.67;;;;;-146.25;100.00;57879.81;5080670;28;45381;-75
2021/12/22 07:18:02;;;;;;;;;2.00;2.00;;;;;-146.25;100.00;57879.81;5080540;28;45492;-75
2021/12/22 07:20:28;;;;;;;;;1.67;1.67;;;;;-146.25;100.00;57879.81;5080721;28;45414;-75
2021/12/22 07:22:54;;;;;;;;;3.00;1.00;;;;;-146.25;100.00;57879.81;5080743;28;45587;-76
2021/12/22 07:25:24;;;;;;;;;2.67;2.00;;;;;-146.25;100.00;57879.81;5080849;28;45372;-75
2021/12/22 07:27:51;;;;;;;;;2.00;2.00;;;;;-146.25;100.00;57879.81;5081061;28;45381;-75
2021/12/22 07:30:16;;;;;;;;;1.00;1.00;;;;;-146.25;100.00;57879.81;5081010;28;45345;-76
2021/12/22 07:32:42;;;;;;;;;2.00;2.00;;;;;-146.25;100.00;57879.81;5096242;27;45363;-75
2021/12/22 07:35:14;;;;;;;;;2.67;2.67;;;;;-146.25;100.00;57879.81;5080335;28;46121;-76
2021/12/22 07:37:39;;;;;;;;;3.00;2.00;;;;;-146.25;100.00;57879.81;5080453;28;45436;-76
2021/12/22 07:40:11;;;;;;;;;2.00;1.67;;;;;-146.25;100.00;57879.81;5080463;28;45384;-76
2021/12/22 07:42:36;;;;;;;;;2.00;2.00;;;;;-146.25;100.00;57879.81;5080747;28;45341;-75
2021/12/22 07:45:04;;;;;;;;;4.33;3.00;;;;;-146.25;100.00;57879.81;5080228;28;45342;-75
2021/12/22 07:47:29;;;;;;;;;1.00;1.00;;;;;-146.25;100.00;57879.81;5080062;28;45335;-75
2021/12/22 07:49:55;;;;;;;;;3.67;3.67;;;;;-146.25;100.00;57879.81;5080549;28;45360;-76
2021/12/22 07:52:20;;;;;;;;;3.00;2.00;;;;;-146.25;100.00;57879.81;5096142;27;45523;-76
2021/12/22 07:54:46;;;;;;;;;2.33;2.00;;;;;-146.25;100.00;57879.81;5079918;28;46055;-75
2021/12/22 07:57:12;;;;;;;;;4.67;3.00;;;;;-146.25;100.00;57879.81;5094020;27;45548;-75
2021/12/22 07:59:37;;;;;;;;;3.00;3.00;;;;;-146.25;100.00;57879.81;5078933;28;45431;-75
2021/12/22 08:02:03;;;;;;;;;3.75;2.75;;;;;-146.25;100.00;57879.81;5079923;28;45349;-75
2021/12/22 08:04:29;;;;;;;;;4.67;3.00;;;;;-146.25;100.00;57879.81;5079425;28;45510;-74
2021/12/22 08:06:55;;;;;;;;;2.33;2.00;;;;;-146.25;100.00;57879.81;5080024;28;45297;-74
2021/12/22 08:09:26;;;;;;;;;5.00;4.67;;;;;-146.25;100.00;57879.81;5079609;28;45348;-75
2021/12/22 08:11:56;;;;;;;;;4.00;4.00;;;;;-146.25;100.00;57879.81;5080078;28;45350;-74
2021/12/22 08:14:23;;;;;;;;;2.67;2.67;;;;;-146.25;100.00;57879.81;5079520;28;45411;-74
2021/12/22 08:16:52;;;;;;;;;8.00;7.75;;;;;-146.25;100.00;57879.81;5077944;28;45433;-75
2021/12/22 08:19:18;;;;;;;;;3.00;3.00;;;;;-146.25;100.00;57879.81;5077935;28;45600;-75
2021/12/22 08:21:44;;;;;;;;;3.00;2.00;;;;;-146.25;100.00;57879.81;5076921;28;45478;-75
2021/12/22 08:24:10;;;;;;;;;5.33;4.67;;;;;-146.25;100.00;57879.81;5078392;28;46209;-74
2021/12/22 08:26:36;;;;;;;;;3.67;3.00;;;;;-146.25;100.00;57879.81;5078864;27;45607;-74
2021/12/22 08:29:02;;;;;;;;;4.00;3.00;;;;;-146.25;100.00;57879.81;5078693;28;45310;-74
2021/12/22 08:31:28;;;;;;;;;4.00;4.00;;;;;-146.25;100.00;57879.81;5079184;28;45524;-74
2021/12/22 08:33:54;;;;;;;;;2.33;2.33;;;;;-146.25;100.00;57879.81;5078714;28;45892;-74
2021/12/22 08:39:09;;;;;;;;;2.00;1.00;;;;;-146.25;100.00;57879.81;5057908;28;45318;-74
2021/12/22 08:41:40;;;;;;;;;2.67;2.67;;;;;-146.25;100.00;57879.81;5061600;28;45528;-76
2021/12/22 08:44:08;;;;;;;;;4.33;4.00;;;;;-146.25;100.00;57879.81;5078041;27;45995;-78
2021/12/22 08:46:37;;;;;;;;;5.67;5.33;;;;;-146.25;100.00;57879.81;5075526;28;45543;-87
2021/12/22 08:49:04;;;;;;;;;5.00;4.33;;;;;-146.25;100.00;57879.81;5078742;28;45521;-77
2021/12/22 08:51:30;;;;;;;;;3.00;3.00;;;;;-146.25;100.00;57879.81;5078394;28;45501;-76
2021/12/22 08:53:56;;;;;;;;;4.00;2.67;;;;;-146.25;100.00;57879.81;5078976;27;45536;-77
2021/12/22 08:56:22;;;;;;;;;2.67;2.00;;;;;-146.25;100.00;57879.81;5078893;28;45384;-74
2021/12/22 08:58:49;;;;;;;;;4.33;3.33;;;;;-146.25;100.00;57879.81;5079337;28;45449;-78
2021/12/22 09:01:15;;;;;;;;;4.00;4.00;;;;;-146.25;100.00;57879.81;5079805;27;45322;-78
2021/12/22 09:03:40;;;;;;;;;3.00;3.00;;;;;-146.25;100.00;57879.81;5078973;28;45337;-77
2021/12/22 09:06:06;;;;;;;;;2.00;1.00;;;;;-146.25;100.00;57879.81;5079231;27;45287;-78
2021/12/22 09:08:31;;;;;;;;;2.67;2.67;;;;;-146.25;100.00;57879.81;5079198;28;45499;-77
2021/12/22 09:10:57;;;;;;;;;3.00;3.00;;;;;-146.25;100.00;57879.81;5081071;27;45300;-78
2021/12/22 09:13:23;;;;;;;;;6.00;6.00;;;;;-146.25;100.00;57879.81;5078689;28;45928;-78
2021/12/22 09:15:49;;;;;;;;;5.67;4.67;;;;;-146.25;100.00;57879.81;5079118;27;45457;-79
2021/12/22 09:18:16;;;;;;;;;6.00;6.00;;;;;-146.25;100.00;57879.81;5078840;27;45458;-79
2021/12/22 09:20:42;;;;;;;;;5.33;5.00;;;;;-146.25;100.00;57879.81;5078908;27;45432;-78
2021/12/22 09:23:07;;;;;;;;;3.00;3.00;;;;;-146.25;100.00;57879.81;5078495;27;45468;-78
2021/12/22 09:25:33;;;;;;;;;3.33;3.00;;;;;-146.25;100.00;57879.81;5094583;27;45633;-78
2021/12/22 09:28:00;;;;;;;;;3.00;2.33;;;;;-146.25;100.00;57879.81;5079397;27;45382;-78
2021/12/22 09:30:27;;;;;;;;;2.33;2.00;;;;;-146.25;100.00;57879.81;5095631;27;45192;-78
2021/12/22 09:32:54;;;;;;;;;2.00;2.00;;;;;-146.25;100.00;57879.81;5078589;27;45401;-79
2021/12/22 09:35:21;;;;;;;;;3.67;2.00;;;;;-146.25;100.00;57879.81;5078789;28;45668;-79
2021/12/22 09:37:46;;;;;;;;;2.33;2.33;;;;;-146.25;100.00;57879.81;5093872;27;45385;-79
2021/12/22 09:40:12;;;;;;;;;2.00;2.00;;;;;-146.25;100.00;57879.81;5078558;28;45560;-78
2021/12/22 09:42:38;;;;;;;;;3.67;2.00;;;;;-146.25;100.00;57879.81;5078208;28;45444;-77
2021/12/22 09:45:04;;;;;;;;;2.33;2.00;;;;;-146.25;100.00;57879.81;5078165;27;45415;-78
2021/12/22 09:47:41;;;;;;;;;3.00;2.67;;;;;-146.25;100.00;57879.81;5078677;28;45499;-79
2021/12/22 09:50:09;;;;;;;;;1.33;1.33;;;;;-146.25;100.00;57879.81;5078432;27;45186;-79
2021/12/22 09:52:41;;;;;;;;;2.67;1.67;;;;;-146.25;100.00;57879.81;5078329;27;46097;-79
2021/12/22 09:55:08;;;;;;;;;2.67;2.67;;;;;-146.25;100.00;57879.81;5093836;27;45306;-80
2021/12/22 09:57:35;;;;;;;;;2.00;2.00;;;;;-146.25;100.00;57879.81;5078236;28;45540;-80
2021/12/22 10:00:03;;;;;;;;;3.33;3.33;;;;;-146.25;100.00;57879.81;5077397;28;45531;-80
2021/12/22 10:02:29;;;;;;;;;2.67;2.67;;;;;-146.25;100.00;57879.81;5078280;27;46636;-79
2021/12/22 10:04:59;;;;;;;;;6.00;4.00;;;;;-146.25;100.00;57879.81;5078156;27;45233;-80
2021/12/22 10:07:28;;;;;;;;;2.00;1.00;;;;;-146.25;100.00;57879.81;5079309;27;45373;-82
2021/12/22 10:10:02;;;;;;;;;2.00;2.00;;;;;-146.25;100.00;57879.81;5078342;27;45495;-79
2021/12/22 10:12:28;;;;;;;;;3.67;3.67;;;;;-146.25;100.00;57879.81;5077178;28;46340;-79
2021/12/22 10:14:56;;;;;;;;;3.00;3.00;;;;;-146.25;100.00;57879.81;5078201;28;45332;-78
2021/12/22 10:17:37;;;;;;;;;4.00;3.00;;;;;-146.25;100.00;57879.81;5078303;28;45372;-79
2021/12/22 10:20:12;;;;;;;;;3.00;2.00;;;;;-146.25;100.00;57879.81;5076699;28;45520;-77
2021/12/22 10:22:48;;;;;;;;;2.67;2.67;;;;;-146.25;100.00;57879.81;5077373;28;46228;-79
2021/12/22 10:25:31;;;;;;;;;5.00;4.00;;;;;-146.25;100.00;57879.81;5077804;27;45470;-79
2021/12/22 10:28:18;;;;;;;;;2.00;2.00;;;;;-146.25;100.00;57879.81;5077935;27;45471;-79
2021/12/22 10:30:44;;;;;;;;;3.00;3.00;;;;;-146.25;100.00;57879.81;5077951;27;45505;-79
2021/12/22 10:33:12;;;;;;;;;5.00;4.67;;;;;-146.25;100.00;57879.81;5077408;27;45934;-79
2021/12/22 10:35:39;;;;;;;;;2.67;2.67;;;;;-146.25;100.00;57879.81;5077614;27;45414;-79
2021/12/22 10:38:08;;;;;;;;;3.33;3.00;;;;;-146.25;100.00;57879.81;5076485;28;45571;-79
2021/12/22 10:40:42;;;;;;;;;3.00;3.00;;;;;-146.25;100.00;57879.81;5076517;28;45374;-78
2021/12/22 10:43:20;;;;;;;;;4.00;3.00;;;;;-146.25;100.00;57879.81;5074792;28;47778;-80
2021/12/22 10:45:51;;;;;;;;;4.33;4.33;;;;;-146.25;100.00;57879.81;5077615;28;45376;-79
2021/12/22 10:51:08;;;;;;;;;2.00;1.67;;;;;-146.25;100.00;57879.81;5077612;28;45510;-80
2021/12/22 10:53:43;;;;;;;;;2.00;1.67;;;;;-146.25;100.00;57879.81;5076402;28;45673;-79
2021/12/22 10:56:09;;;;;;;;;4.00;3.33;;;;;-146.25;100.00;57879.81;5077336;28;45663;-80
2021/12/22 10:58:38;;;;;;;;;7.00;7.00;;;;;-146.25;100.00;57879.81;5077330;28;45499;-79
2021/12/22 11:01:14;;;;;;;;;2.67;2.00;;;;;-146.25;100.00;57879.81;5093335;27;45314;-80
2021/12/22 11:03:46;;;;;;;;;3.67;3.00;;;;;-146.25;100.00;57879.81;5077010;28;45594;-81
2021/12/22 11:06:28;;;;;;;;;2.00;2.00;;;;;-146.25;100.00;57879.81;5059288;28;45415;-79
2021/12/22 11:09:15;;;;;;;;;3.33;3.00;;;;;-146.25;100.00;57879.81;5092959;27;45263;-80
2021/12/22 11:12:03;;;;;;;;;2.33;2.33;;;;;-146.25;100.00;57879.81;5077586;27;45386;-80
2021/12/22 11:14:38;;;;;;;;;3.00;2.00;;;;;-146.25;100.00;57879.81;5074843;28;46735;-80
2021/12/22 11:17:06;;;;;;;;;2.00;2.00;;;;;-146.25;100.00;57879.81;5092976;27;45629;-80
2021/12/22 11:20:03;;;;;;;;;4.33;3.00;;;;;-146.25;100.00;57879.81;5077496;28;45527;-80
2021/12/22 11:22:52;;;;;;;;;2.00;2.00;;;;;-146.25;100.00;57879.81;5075495;28;45506;-79
2021/12/22 11:25:19;;;;;;;;;3.00;3.00;;;;;-146.25;100.00;57879.81;5076749;27;46107;-79
2021/12/22 11:27:48;;;;;;;;;4.00;4.00;;;;;-146.25;100.00;57879.81;5076847;27;45337;-80
2021/12/22 11:30:14;;;;;;;;;2.67;2.33;;;;;-146.25;100.00;57879.81;5077141;28;45272;-78
2021/12/22 11:32:40;;;;;;;;;2.00;2.00;;;;;-146.25;100.00;57879.81;5077182;27;45297;-79